createdAt,value
2022-09-18T00:00:39.241Z,10.02
2022-09-18T00:01:39.633Z,10.01
2022-09-18T00:02:39.248Z,10.01
2022-09-18T00:03:39.208Z,10.01
2022-09-18T00:04:39.223Z,10.01
2022-09-18T00:05:39.189Z,10.02
2022-09-18T00:06:39.185Z,10.02
2022-09-18T00:07:39.571Z,10.02
2022-09-18T00:08:39.163Z,10.02
2022-09-18T00:09:39.160Z,10.02
2022-09-18T00:10:39.129Z,10.02
2022-09-18T00:11:39.129Z,10.01
2022-09-18T00:12:39.111Z,10.01
2022-09-18T00:13:39.279Z,10.02
2022-09-18T00:14:39.091Z,10.02
2022-09-18T00:15:39.078Z,10.03
2022-09-18T00:16:39.128Z,10.04
2022-09-18T00:17:39.057Z,10.04
2022-09-18T00:18:39.058Z,10.04
2022-09-18T00:19:39.225Z,10.04
2022-09-18T00:20:39.020Z,10.03
2022-09-18T00:21:39.015Z,10.01
2022-09-18T00:22:39.349Z,10.00
2022-09-18T00:23:38.999Z,10.00
2022-09-18T00:24:38.992Z,10.00
2022-09-18T00:25:38.970Z,10.00
2022-09-18T00:26:38.966Z,10.00
2022-09-18T00:27:38.947Z,10.00
2022-09-18T00:28:39.143Z,10.00
2022-09-18T00:29:38.927Z,10.00
2022-09-18T00:30:38.916Z,10.00
2022-09-18T00:31:38.933Z,10.00
2022-09-18T00:32:38.908Z,10.01
2022-09-18T00:33:38.878Z,10.01
2022-09-18T00:34:39.289Z,10.01
2022-09-18T00:35:38.856Z,10.00
2022-09-18T00:36:38.857Z,9.99
2022-09-18T00:37:38.837Z,10.00
2022-09-18T00:38:38.841Z,10.00
2022-09-18T00:39:38.818Z,10.02
2022-09-18T00:40:39.186Z,10.03
2022-09-18T00:41:38.793Z,10.04
2022-09-18T00:42:38.787Z,10.05
2022-09-18T00:43:38.770Z,10.05
2022-09-18T00:44:38.782Z,10.05
2022-09-18T00:45:38.757Z,10.05
2022-09-18T00:46:38.967Z,10.04
2022-09-18T00:47:38.736Z,10.03
2022-09-18T00:48:38.717Z,10.02
2022-09-18T00:49:38.708Z,10.02
2022-09-18T00:50:38.710Z,10.03
2022-09-18T00:51:38.687Z,10.02
2022-09-18T00:52:38.877Z,10.02
2022-09-18T00:53:38.669Z,10.02
2022-09-18T00:54:38.662Z,10.01
2022-09-18T00:55:38.646Z,10.01
2022-09-18T00:56:38.648Z,10.01
2022-09-18T00:57:38.620Z,10.01
2022-09-18T00:58:38.781Z,10.02
2022-09-18T00:59:38.598Z,10.03
2022-09-18T01:00:38.736Z,10.04
2022-09-18T01:01:38.644Z,10.04
2022-09-18T01:02:38.564Z,10.05
2022-09-18T01:03:38.556Z,10.04
2022-09-18T01:04:38.774Z,10.03
2022-09-18T01:05:38.542Z,10.02
2022-09-18T01:06:38.521Z,10.01
2022-09-18T01:07:38.515Z,10.00
2022-09-18T01:08:41.894Z,9.99
2022-09-18T01:09:39.809Z,9.99
2022-09-18T01:10:38.490Z,9.98
2022-09-18T01:11:38.465Z,9.98
2022-09-18T01:12:38.460Z,9.98
2022-09-18T01:13:38.445Z,9.97
2022-09-18T01:14:38.433Z,9.97
2022-09-18T01:15:38.592Z,9.97
2022-09-18T01:16:38.483Z,9.97
2022-09-18T01:17:38.400Z,9.97
2022-09-18T01:18:38.400Z,9.97
2022-09-18T01:19:38.392Z,9.97
2022-09-18T01:20:38.367Z,9.97
2022-09-18T01:21:38.513Z,9.97
2022-09-18T01:22:38.345Z,9.96
2022-09-18T01:23:38.339Z,9.96
2022-09-18T01:24:38.320Z,9.95
2022-09-18T01:25:38.519Z,9.95
2022-09-18T01:26:38.294Z,9.95
2022-09-18T01:27:38.296Z,9.95
2022-09-18T01:28:38.287Z,9.95
2022-09-18T01:29:38.269Z,9.94
2022-09-18T01:30:38.255Z,9.95
2022-09-18T01:31:38.448Z,9.95
2022-09-18T01:32:38.236Z,9.95
2022-09-18T01:33:38.236Z,9.95
2022-09-18T01:34:38.210Z,9.95
2022-09-18T01:35:41.468Z,9.95
2022-09-18T01:36:38.187Z,9.95
2022-09-18T01:37:38.393Z,9.95
2022-09-18T01:38:38.172Z,9.94
2022-09-18T01:39:38.172Z,9.94
2022-09-18T01:40:38.201Z,9.93
2022-09-18T01:41:38.134Z,9.94
2022-09-18T01:42:38.123Z,9.94
2022-09-18T01:43:38.304Z,9.95
2022-09-18T01:44:38.102Z,9.94
2022-09-18T01:45:38.094Z,9.93
2022-09-18T01:46:38.131Z,9.93
2022-09-18T01:47:38.071Z,9.94
2022-09-18T01:48:38.063Z,9.95
2022-09-18T01:49:38.239Z,9.95
2022-09-18T01:50:38.034Z,9.95
2022-09-18T01:51:38.023Z,9.95
2022-09-18T01:52:38.032Z,9.94
2022-09-18T01:53:38.007Z,9.94
2022-09-18T01:54:38.017Z,9.93
2022-09-18T01:55:38.148Z,9.93
2022-09-18T01:56:37.967Z,9.92
2022-09-18T01:57:37.962Z,9.90
2022-09-18T01:58:37.970Z,9.88
2022-09-18T01:59:37.937Z,9.87
2022-09-18T02:00:37.934Z,9.85
2022-09-18T02:01:38.303Z,9.84
2022-09-18T02:02:38.030Z,9.84
2022-09-18T02:03:37.911Z,9.84
2022-09-18T02:04:37.879Z,9.83
2022-09-18T02:05:37.875Z,9.83
2022-09-18T02:06:37.878Z,9.82
2022-09-18T02:07:38.033Z,9.81
2022-09-18T02:08:37.845Z,9.81
2022-09-18T02:09:37.835Z,9.81
2022-09-18T02:10:37.820Z,9.81
2022-09-18T02:11:37.818Z,9.80
2022-09-18T02:12:37.796Z,9.80
2022-09-18T02:13:38.181Z,9.79
2022-09-18T02:14:37.775Z,9.78
2022-09-18T02:15:37.768Z,9.77
2022-09-18T02:16:37.750Z,9.77
2022-09-18T02:17:37.752Z,9.76
2022-09-18T02:18:37.734Z,9.76
2022-09-18T02:19:38.050Z,9.75
2022-09-18T02:20:37.704Z,9.75
2022-09-18T02:21:37.693Z,9.75
2022-09-18T02:22:37.685Z,9.75
2022-09-18T02:23:37.689Z,9.74
2022-09-18T02:24:37.665Z,9.72
2022-09-18T02:25:37.870Z,9.70
2022-09-18T02:26:37.635Z,9.69
2022-09-18T02:27:37.661Z,9.68
2022-09-18T02:28:37.669Z,9.67
2022-09-18T02:29:37.620Z,9.66
2022-09-18T02:30:37.594Z,9.65
2022-09-18T02:31:37.822Z,9.64
2022-09-18T02:32:37.570Z,9.64
2022-09-18T02:33:37.563Z,9.63
2022-09-18T02:34:37.564Z,9.63
2022-09-18T02:35:37.552Z,9.62
2022-09-18T02:36:37.538Z,9.61
2022-09-18T02:37:37.677Z,9.61
2022-09-18T02:38:37.518Z,9.61
2022-09-18T02:39:37.501Z,9.60
2022-09-18T02:40:37.538Z,9.59
2022-09-18T02:41:37.473Z,9.59
2022-09-18T02:42:37.488Z,9.59
2022-09-18T02:43:37.661Z,9.59
2022-09-18T02:44:37.442Z,9.59
2022-09-18T02:45:37.435Z,9.59
2022-09-18T02:46:37.622Z,9.59
2022-09-18T02:47:37.413Z,9.59
2022-09-18T02:48:37.419Z,9.59
2022-09-18T02:49:37.671Z,9.59
2022-09-18T02:50:37.373Z,9.59
2022-09-18T02:51:37.370Z,9.59
2022-09-18T02:52:37.358Z,9.58
2022-09-18T02:53:37.341Z,9.57
2022-09-18T02:54:37.338Z,9.56
2022-09-18T02:55:37.503Z,9.56
2022-09-18T02:56:37.303Z,9.56
2022-09-18T02:57:37.308Z,9.56
2022-09-18T02:58:37.298Z,9.57
2022-09-18T02:59:37.281Z,9.57
2022-09-18T03:00:37.272Z,9.58
2022-09-18T03:01:37.527Z,9.57
2022-09-18T03:02:37.295Z,9.55
2022-09-18T03:03:37.241Z,9.52
2022-09-18T03:04:37.225Z,9.49
2022-09-18T03:05:37.231Z,9.46
2022-09-18T03:06:37.202Z,9.43
2022-09-18T03:07:37.347Z,9.42
2022-09-18T03:08:37.193Z,9.40
2022-09-18T03:09:37.192Z,9.39
2022-09-18T03:10:37.160Z,9.38
2022-09-18T03:11:37.147Z,9.38
2022-09-18T03:12:37.131Z,9.38
2022-09-18T03:13:37.488Z,9.38
2022-09-18T03:14:37.113Z,9.38
2022-09-18T03:15:37.115Z,9.38
2022-09-18T03:16:37.172Z,9.38
2022-09-18T03:17:37.089Z,9.38
2022-09-18T03:18:37.092Z,9.37
2022-09-18T03:19:37.241Z,9.36
2022-09-18T03:20:37.047Z,9.35
2022-09-18T03:21:37.041Z,9.33
2022-09-18T03:22:37.029Z,9.32
2022-09-18T03:23:37.021Z,9.31
2022-09-18T03:24:37.014Z,9.31
2022-09-18T03:25:37.322Z,9.31
2022-09-18T03:26:36.986Z,9.31
2022-09-18T03:27:36.975Z,9.31
2022-09-18T03:28:36.970Z,9.31
2022-09-18T03:29:36.969Z,9.31
2022-09-18T03:30:36.948Z,9.32
2022-09-18T03:31:37.302Z,9.33
2022-09-18T03:32:36.931Z,9.33
2022-09-18T03:33:36.907Z,9.32
2022-09-18T03:34:36.902Z,9.32
2022-09-18T03:35:36.896Z,9.32
2022-09-18T03:36:36.878Z,9.32
2022-09-18T03:37:37.083Z,9.33
2022-09-18T03:38:36.860Z,9.34
2022-09-18T03:39:36.865Z,9.35
2022-09-18T03:40:36.875Z,9.36
2022-09-18T03:41:36.848Z,9.38
2022-09-18T03:42:36.816Z,9.40
2022-09-18T03:43:37.835Z,9.41
2022-09-18T03:44:36.827Z,9.42
2022-09-18T03:45:36.784Z,9.42
2022-09-18T03:46:36.853Z,9.42
2022-09-18T03:47:36.906Z,9.42
2022-09-18T03:48:36.750Z,9.42
2022-09-18T03:49:36.898Z,9.42
2022-09-18T03:50:36.724Z,9.43
2022-09-18T03:51:36.744Z,9.44
2022-09-18T03:52:36.704Z,9.45
2022-09-18T03:53:36.693Z,9.46
2022-09-18T03:54:36.690Z,9.46
2022-09-18T03:55:36.879Z,9.48
2022-09-18T03:56:36.689Z,9.49
2022-09-18T03:57:36.654Z,9.50
2022-09-18T03:58:36.644Z,9.51
2022-09-18T03:59:36.620Z,9.53
2022-09-18T04:00:36.614Z,9.53
2022-09-18T04:01:36.896Z,9.53
2022-09-18T04:02:36.642Z,9.52
2022-09-18T04:03:36.593Z,9.51
2022-09-18T04:04:36.569Z,9.50
2022-09-18T04:05:36.558Z,9.49
2022-09-18T04:06:36.549Z,9.48
2022-09-18T04:07:36.734Z,9.48
2022-09-18T04:08:36.534Z,9.48
2022-09-18T04:09:36.510Z,9.47
2022-09-18T04:10:36.514Z,9.46
2022-09-18T04:11:36.490Z,9.46
2022-09-18T04:12:36.476Z,9.46
2022-09-18T04:13:36.633Z,9.47
2022-09-18T04:14:36.483Z,9.47
2022-09-18T04:15:36.452Z,9.48
2022-09-18T04:16:36.543Z,9.50
2022-09-18T04:17:36.437Z,9.51
2022-09-18T04:18:36.444Z,9.53
2022-09-18T04:19:36.740Z,9.53
2022-09-18T04:20:36.400Z,9.53
2022-09-18T04:21:36.400Z,9.53
2022-09-18T04:22:36.394Z,9.54
2022-09-18T04:23:36.373Z,9.55
2022-09-18T04:24:36.370Z,9.56
2022-09-18T04:25:36.508Z,9.56
2022-09-18T04:26:36.353Z,9.56
2022-09-18T04:27:36.336Z,9.56
2022-09-18T04:28:36.340Z,9.55
2022-09-18T04:29:36.309Z,9.55
2022-09-18T04:30:36.288Z,9.55
2022-09-18T04:31:36.491Z,9.55
2022-09-18T04:32:36.261Z,9.56
2022-09-18T04:33:36.267Z,9.56
2022-09-18T04:34:36.268Z,9.57
2022-09-18T04:35:36.237Z,9.57
2022-09-18T04:36:36.249Z,9.57
2022-09-18T04:37:36.371Z,9.56
2022-09-18T04:38:36.224Z,9.56
2022-09-18T04:39:36.206Z,9.55
2022-09-18T04:40:36.236Z,9.55
2022-09-18T04:41:36.168Z,9.54
2022-09-18T04:42:36.183Z,9.53
2022-09-18T04:43:36.465Z,9.53
2022-09-18T04:44:36.167Z,9.53
2022-09-18T04:45:36.138Z,9.53
2022-09-18T04:46:36.195Z,9.54
2022-09-18T04:47:36.117Z,9.54
2022-09-18T04:48:36.107Z,9.53
2022-09-18T04:49:36.265Z,9.51
2022-09-18T04:50:36.092Z,9.50
2022-09-18T04:51:36.062Z,9.49
2022-09-18T04:52:36.053Z,9.48
2022-09-18T04:53:36.037Z,9.47
2022-09-18T04:54:36.033Z,9.47
2022-09-18T04:55:36.372Z,9.47
2022-09-18T04:56:36.018Z,9.47
2022-09-18T04:57:36.006Z,9.47
2022-09-18T04:58:36.028Z,9.46
2022-09-18T04:59:35.979Z,9.46
2022-09-18T05:00:36.114Z,9.46
2022-09-18T05:01:36.167Z,9.47
2022-09-18T05:02:35.957Z,9.49
2022-09-18T05:03:35.941Z,9.51
2022-09-18T05:04:35.923Z,9.53
2022-09-18T05:05:35.921Z,9.55
2022-09-18T05:06:35.898Z,9.56
2022-09-18T05:07:36.071Z,9.58
2022-09-18T05:08:35.908Z,9.60
2022-09-18T05:09:35.881Z,9.61
2022-09-18T05:10:35.858Z,9.62
2022-09-18T05:11:35.842Z,9.62
2022-09-18T05:12:35.851Z,9.62
2022-09-18T05:13:36.148Z,9.62
2022-09-18T05:14:35.811Z,9.62
2022-09-18T05:15:35.804Z,9.62
2022-09-18T05:16:35.853Z,9.62
2022-09-18T05:17:35.783Z,9.62
2022-09-18T05:18:35.785Z,9.61
2022-09-18T05:19:36.082Z,9.61
2022-09-18T05:20:35.746Z,9.60
2022-09-18T05:21:35.759Z,9.60
2022-09-18T05:22:35.716Z,9.59
2022-09-18T05:23:35.717Z,9.57
2022-09-18T05:24:35.713Z,9.54
2022-09-18T05:25:35.958Z,9.52
2022-09-18T05:26:35.695Z,9.51
2022-09-18T05:27:35.667Z,9.51
2022-09-18T05:28:35.674Z,9.50
2022-09-18T05:29:35.646Z,9.48
2022-09-18T05:30:35.634Z,9.46
2022-09-18T05:31:35.810Z,9.44
2022-09-18T05:32:35.645Z,9.42
2022-09-18T05:33:35.617Z,9.42
2022-09-18T05:34:35.597Z,9.42
2022-09-18T05:35:35.611Z,9.41
2022-09-18T05:36:35.566Z,9.40
2022-09-18T05:37:35.757Z,9.40
2022-09-18T05:38:35.535Z,9.39
2022-09-18T05:39:35.541Z,9.39
2022-09-18T05:40:35.661Z,9.40
2022-09-18T05:41:35.528Z,9.41
2022-09-18T05:42:35.512Z,9.44
2022-09-18T05:43:35.651Z,9.46
2022-09-18T05:44:35.498Z,9.48
2022-09-18T05:45:35.466Z,9.48
2022-09-18T05:46:35.480Z,9.49
2022-09-18T05:47:35.446Z,9.49
2022-09-18T05:48:35.437Z,9.50
2022-09-18T05:49:35.599Z,9.51
2022-09-18T05:50:35.429Z,9.52
2022-09-18T05:51:35.429Z,9.53
2022-09-18T05:52:35.384Z,9.55
2022-09-18T05:53:35.390Z,9.57
2022-09-18T05:54:35.383Z,9.58
2022-09-18T05:55:35.695Z,9.59
2022-09-18T05:56:35.349Z,9.58
2022-09-18T05:57:35.346Z,9.56
2022-09-18T05:58:35.342Z,9.55
2022-09-18T05:59:35.317Z,9.55
2022-09-18T06:00:35.332Z,9.56
2022-09-18T06:01:35.551Z,9.56
2022-09-18T06:02:35.336Z,9.55
2022-09-18T06:03:35.290Z,9.54
2022-09-18T06:04:35.268Z,9.54
2022-09-18T06:05:35.269Z,9.54
2022-09-18T06:06:35.252Z,9.56
2022-09-18T06:07:35.412Z,9.59
2022-09-18T06:08:35.235Z,9.64
2022-09-18T06:09:35.230Z,9.68
2022-09-18T06:10:35.204Z,9.73
2022-09-18T06:11:35.192Z,9.78
2022-09-18T06:12:35.185Z,9.83
2022-09-18T06:13:35.490Z,9.87
2022-09-18T06:14:35.162Z,9.91
2022-09-18T06:15:35.148Z,9.96
2022-09-18T06:16:39.905Z,10.00
2022-09-18T06:17:36.136Z,10.05
2022-09-18T06:18:35.123Z,10.10
2022-09-18T06:19:35.260Z,10.14
2022-09-18T06:20:35.074Z,10.18
2022-09-18T06:21:35.069Z,10.22
2022-09-18T06:22:35.058Z,10.28
2022-09-18T06:23:35.081Z,10.34
2022-09-18T06:24:35.034Z,10.41
2022-09-18T06:25:35.195Z,10.48
2022-09-18T06:26:35.023Z,10.54
2022-09-18T06:27:35.000Z,10.60
2022-09-18T06:28:35.000Z,10.64
2022-09-18T06:29:34.994Z,10.68
2022-09-18T06:30:34.977Z,10.70
2022-09-18T06:31:35.209Z,10.72
2022-09-18T06:32:34.952Z,10.73
2022-09-18T06:33:34.936Z,10.74
2022-09-18T06:34:38.636Z,10.74
2022-09-18T06:35:34.913Z,10.73
2022-09-18T06:36:34.905Z,10.71
2022-09-18T06:37:35.048Z,10.67
2022-09-18T06:38:34.883Z,10.63
2022-09-18T06:39:34.882Z,10.60
2022-09-18T06:40:34.963Z,10.59
2022-09-18T06:41:34.844Z,10.59
2022-09-18T06:42:34.849Z,10.62
2022-09-18T06:43:34.984Z,10.65
2022-09-18T06:44:34.819Z,10.69
2022-09-18T06:45:34.808Z,10.74
2022-09-18T06:46:34.835Z,10.79
2022-09-18T06:47:34.786Z,10.85
2022-09-18T06:48:34.773Z,10.91
2022-09-18T06:49:34.918Z,10.97
2022-09-18T06:50:34.753Z,11.03
2022-09-18T06:51:34.765Z,11.09
2022-09-18T06:52:34.733Z,11.14
2022-09-18T06:53:34.722Z,11.18
2022-09-18T06:54:34.715Z,11.21
2022-09-18T06:55:35.030Z,11.24
2022-09-18T06:56:34.703Z,11.25
2022-09-18T06:57:34.675Z,11.28
2022-09-18T06:58:34.660Z,11.32
2022-09-18T06:59:34.705Z,11.37
2022-09-18T07:00:34.697Z,11.42
2022-09-18T07:01:35.043Z,11.49
2022-09-18T07:02:34.646Z,11.56
2022-09-18T07:03:34.608Z,11.63
2022-09-18T07:04:34.621Z,11.70
2022-09-18T07:05:34.586Z,11.76
2022-09-18T07:06:34.579Z,11.83
2022-09-18T07:07:34.747Z,11.91
2022-09-18T07:08:34.562Z,11.95
2022-09-18T07:09:34.545Z,11.96
2022-09-18T07:10:34.542Z,11.97
2022-09-18T07:11:34.521Z,11.99
2022-09-18T07:12:34.526Z,12.01
2022-09-18T07:13:34.655Z,12.03
2022-09-18T07:14:34.510Z,12.05
2022-09-18T07:15:34.475Z,12.09
2022-09-18T07:16:34.531Z,12.14
2022-09-18T07:17:34.446Z,12.18
2022-09-18T07:18:34.456Z,12.21
2022-09-18T07:19:34.599Z,12.21
2022-09-18T07:20:34.424Z,12.22
2022-09-18T07:21:34.404Z,12.24
2022-09-18T07:22:34.419Z,12.25
2022-09-18T07:23:34.385Z,12.26
2022-09-18T07:24:34.394Z,12.27
2022-09-18T07:25:34.724Z,12.29
2022-09-18T07:26:34.357Z,12.34
2022-09-18T07:27:34.367Z,12.40
2022-09-18T07:28:34.335Z,12.45
2022-09-18T07:29:34.324Z,12.48
2022-09-18T07:30:34.315Z,12.52
2022-09-18T07:31:34.583Z,12.56
2022-09-18T07:32:34.300Z,12.60
2022-09-18T07:33:34.294Z,12.65
2022-09-18T07:34:34.274Z,12.69
2022-09-18T07:35:34.262Z,12.75
2022-09-18T07:36:34.251Z,12.80
2022-09-18T07:37:34.391Z,12.85
2022-09-18T07:38:34.234Z,12.90
2022-09-18T07:39:34.214Z,12.94
2022-09-18T07:40:34.265Z,12.94
2022-09-18T07:41:34.186Z,12.92
2022-09-18T07:42:34.199Z,12.92
2022-09-18T07:43:34.331Z,12.93
2022-09-18T07:44:34.161Z,12.97
2022-09-18T07:45:34.152Z,13.01
2022-09-18T07:46:34.220Z,13.06
2022-09-18T07:47:34.175Z,13.09
2022-09-18T07:48:34.129Z,13.09
2022-09-18T07:49:34.215Z,13.05
2022-09-18T07:50:34.095Z,13.02
2022-09-18T07:51:34.094Z,13.02
2022-09-18T07:52:34.080Z,13.03
2022-09-18T07:53:34.065Z,13.05
2022-09-18T07:54:34.070Z,13.09
2022-09-18T07:55:34.205Z,13.13
2022-09-18T07:56:34.099Z,13.18
2022-09-18T07:57:34.025Z,13.25
2022-09-18T07:58:34.019Z,13.36
2022-09-18T07:59:34.005Z,13.47
2022-09-18T08:00:34.019Z,13.56
2022-09-18T08:01:34.161Z,13.63
2022-09-18T08:02:34.158Z,13.66
2022-09-18T08:03:36.895Z,13.65
2022-09-18T08:04:34.956Z,13.57
2022-09-18T08:05:33.935Z,13.50
2022-09-18T08:06:35.207Z,13.47
2022-09-18T08:07:34.075Z,13.47
2022-09-18T08:08:33.904Z,13.50
2022-09-18T08:09:33.895Z,13.54
2022-09-18T08:10:33.905Z,13.59
2022-09-18T08:11:33.874Z,13.64
2022-09-18T08:12:33.874Z,13.65
2022-09-18T08:13:34.209Z,13.66
2022-09-18T08:14:33.844Z,13.68
2022-09-18T08:15:33.839Z,13.72
2022-09-18T08:16:33.894Z,13.77
2022-09-18T08:17:33.806Z,13.83
2022-09-18T08:18:33.796Z,13.90
2022-09-18T08:19:34.097Z,13.99
2022-09-18T08:20:33.765Z,14.05
2022-09-18T08:21:33.767Z,14.09
2022-09-18T08:22:33.756Z,14.13
2022-09-18T08:23:33.739Z,14.17
2022-09-18T08:24:33.741Z,14.21
2022-09-18T08:25:33.739Z,14.25
2022-09-18T08:26:33.702Z,14.29
2022-09-18T08:27:33.740Z,14.34
2022-09-18T08:28:33.682Z,14.40
2022-09-18T08:29:33.673Z,14.45
2022-09-18T08:30:33.666Z,14.50
2022-09-18T08:31:34.020Z,14.56
2022-09-18T08:32:33.645Z,14.61
2022-09-18T08:33:33.629Z,14.62
2022-09-18T08:34:33.650Z,14.62
2022-09-18T08:35:33.624Z,14.60
2022-09-18T08:36:33.599Z,14.57
2022-09-18T08:37:33.794Z,14.55
2022-09-18T08:38:33.575Z,14.53
2022-09-18T08:39:33.568Z,14.51
2022-09-18T08:40:33.596Z,14.47
2022-09-18T08:41:33.543Z,14.42
2022-09-18T08:42:33.537Z,14.36
2022-09-18T08:43:33.681Z,14.31
2022-09-18T08:44:33.520Z,14.25
2022-09-18T08:45:33.500Z,14.20
2022-09-18T08:46:33.516Z,14.16
2022-09-18T08:47:33.483Z,14.13
2022-09-18T08:48:33.455Z,14.10
2022-09-18T08:49:33.660Z,14.07
2022-09-18T08:50:38.180Z,14.03
2022-09-18T08:51:34.448Z,14.00
2022-09-18T08:52:33.418Z,13.96
2022-09-18T08:53:33.407Z,13.91
2022-09-18T08:54:33.397Z,13.84
2022-09-18T08:55:33.570Z,13.76
2022-09-18T08:56:33.375Z,13.67
2022-09-18T08:57:33.366Z,13.57
2022-09-18T08:58:33.348Z,13.49
2022-09-18T08:59:33.355Z,13.41
2022-09-18T09:00:33.399Z,13.36
2022-09-18T09:01:33.369Z,13.31
2022-09-18T09:02:33.375Z,13.26
2022-09-18T09:03:33.316Z,13.21
2022-09-18T09:04:33.286Z,13.16
2022-09-18T09:05:33.276Z,13.12
2022-09-18T09:06:33.272Z,13.08
2022-09-18T09:07:34.165Z,13.04
2022-09-18T09:08:33.275Z,13.01
2022-09-18T09:09:33.233Z,12.98
2022-09-18T09:10:33.219Z,12.95
2022-09-18T09:11:33.217Z,12.93
2022-09-18T09:12:33.203Z,12.91
2022-09-18T09:13:33.361Z,12.91
2022-09-18T09:14:55.483Z,12.91
2022-09-18T09:15:34.199Z,12.91
2022-09-18T09:16:33.265Z,12.90
2022-09-18T09:17:33.153Z,12.89
2022-09-18T09:18:33.125Z,12.89
2022-09-18T09:19:33.306Z,12.90
2022-09-18T09:20:33.116Z,12.91
2022-09-18T09:21:33.105Z,12.92
2022-09-18T09:22:33.093Z,12.93
2022-09-18T09:23:33.135Z,12.93
2022-09-18T09:24:33.077Z,12.93
2022-09-18T09:25:33.226Z,12.94
2022-09-18T09:26:33.049Z,12.97
2022-09-18T09:27:33.040Z,13.00
2022-09-18T09:28:33.037Z,13.03
2022-09-18T09:29:33.004Z,13.07
2022-09-18T09:30:33.005Z,13.11
2022-09-18T09:31:33.203Z,13.15
2022-09-18T09:32:32.985Z,13.18
2022-09-18T09:33:32.980Z,13.21
2022-09-18T09:34:32.959Z,13.25
2022-09-18T09:35:32.955Z,13.27
2022-09-18T09:36:32.954Z,13.30
2022-09-18T09:37:33.914Z,13.32
2022-09-18T09:38:32.915Z,13.34
2022-09-18T09:39:32.911Z,13.35
2022-09-18T09:40:32.954Z,13.39
2022-09-18T09:41:32.885Z,13.46
2022-09-18T09:42:32.885Z,13.53
2022-09-18T09:43:33.035Z,13.60
2022-09-18T09:44:32.872Z,13.64
2022-09-18T09:45:32.843Z,13.67
2022-09-18T09:46:32.882Z,13.69
2022-09-18T09:47:32.830Z,13.71
2022-09-18T09:48:32.829Z,13.73
2022-09-18T09:49:32.963Z,13.75
2022-09-18T09:50:32.784Z,13.79
2022-09-18T09:51:32.778Z,13.84
2022-09-18T09:52:32.797Z,13.87
2022-09-18T09:53:32.754Z,13.89
2022-09-18T09:54:32.744Z,13.90
2022-09-18T09:55:33.064Z,13.92
2022-09-18T09:56:32.723Z,13.96
2022-09-18T09:57:32.715Z,14.01
2022-09-18T09:58:48.250Z,14.04
2022-09-18T09:59:32.707Z,14.07
2022-09-18T10:00:32.691Z,14.08
2022-09-18T10:01:32.864Z,14.07
2022-09-18T10:02:32.744Z,14.06
2022-09-18T10:03:32.677Z,14.04
2022-09-18T10:04:32.661Z,14.03
2022-09-18T10:05:32.640Z,14.03
2022-09-18T10:06:32.927Z,14.03
2022-09-18T10:07:32.901Z,14.03
2022-09-18T10:08:32.606Z,14.00
2022-09-18T10:09:32.594Z,13.96
2022-09-18T10:10:32.583Z,13.92
2022-09-18T10:11:32.578Z,13.89
2022-09-18T10:12:42.254Z,13.88
2022-09-18T10:13:32.534Z,13.87
2022-09-18T10:14:32.516Z,13.87
2022-09-18T10:15:32.505Z,13.88
2022-09-18T10:16:32.594Z,13.89
2022-09-18T10:17:32.509Z,13.88
2022-09-18T10:18:32.644Z,13.87
2022-09-18T10:19:32.464Z,13.82
2022-09-18T10:20:32.462Z,13.77
2022-09-18T10:21:32.460Z,13.72
2022-09-18T10:22:32.444Z,13.67
2022-09-18T10:23:34.005Z,13.63
2022-09-18T10:24:32.745Z,13.59
2022-09-18T10:25:32.399Z,13.54
2022-09-18T10:26:32.406Z,13.49
2022-09-18T10:27:32.399Z,13.46
2022-09-18T10:28:32.379Z,13.44
2022-09-18T10:29:35.684Z,13.44
2022-09-18T10:30:32.543Z,13.46
2022-09-18T10:31:32.381Z,13.49
2022-09-18T10:32:32.340Z,13.53
2022-09-18T10:33:32.314Z,13.55
2022-09-18T10:34:32.304Z,13.56
2022-09-18T10:35:32.308Z,13.57
2022-09-18T10:36:32.483Z,13.58
2022-09-18T10:37:32.279Z,13.58
2022-09-18T10:38:32.257Z,13.58
2022-09-18T10:39:32.284Z,13.60
2022-09-18T10:40:32.295Z,13.62
2022-09-18T10:41:32.226Z,13.63
2022-09-18T10:42:32.398Z,13.61
2022-09-18T10:43:32.252Z,13.59
2022-09-18T10:44:32.199Z,13.58
2022-09-18T10:45:32.229Z,13.57
2022-09-18T10:46:32.211Z,13.57
2022-09-18T10:47:32.171Z,13.57
2022-09-18T10:48:32.328Z,13.57
2022-09-18T10:49:32.151Z,13.57
2022-09-18T10:50:34.434Z,13.56
2022-09-18T10:51:32.139Z,13.56
2022-09-18T10:52:32.183Z,13.55
2022-09-18T10:53:32.100Z,13.54
2022-09-18T10:54:32.263Z,13.53
2022-09-18T10:55:32.075Z,13.52
2022-09-18T10:56:32.067Z,13.52
2022-09-18T10:57:32.062Z,13.51
2022-09-18T10:58:32.044Z,13.50
2022-09-18T10:59:32.046Z,13.50
2022-09-18T11:00:32.249Z,13.49
2022-09-18T11:01:32.062Z,13.49
2022-09-18T11:02:32.040Z,13.49
2022-09-18T11:03:31.993Z,13.49
2022-09-18T11:04:31.984Z,13.49
2022-09-18T11:05:31.965Z,13.49
2022-09-18T11:06:32.125Z,13.47
2022-09-18T11:07:31.946Z,13.44
2022-09-18T11:08:31.938Z,13.41
2022-09-18T11:09:31.904Z,13.39
2022-09-18T11:10:31.942Z,13.37
2022-09-18T11:11:31.905Z,13.36
2022-09-18T11:12:32.088Z,13.34
2022-09-18T11:13:31.887Z,13.32
2022-09-18T11:14:31.891Z,13.29
2022-09-18T11:15:31.856Z,13.25
2022-09-18T11:16:31.892Z,13.20
2022-09-18T11:17:31.888Z,13.16
2022-09-18T11:18:32.105Z,13.12
2022-09-18T11:19:31.816Z,13.09
2022-09-18T11:20:31.814Z,13.07
2022-09-18T11:21:31.795Z,13.06
2022-09-18T11:22:31.792Z,13.05
2022-09-18T11:23:31.780Z,13.03
2022-09-18T11:24:31.931Z,13.01
2022-09-18T11:25:31.745Z,12.99
2022-09-18T11:26:31.750Z,12.98
2022-09-18T11:27:31.745Z,12.97
2022-09-18T11:28:31.727Z,12.97
2022-09-18T11:29:31.713Z,12.95
2022-09-18T11:30:31.863Z,12.94
2022-09-18T11:31:31.740Z,12.92
2022-09-18T11:32:31.676Z,12.91
2022-09-18T11:33:31.668Z,12.91
2022-09-18T11:34:31.652Z,12.92
2022-09-18T11:35:31.644Z,12.94
2022-09-18T11:36:31.814Z,12.96
2022-09-18T11:37:31.615Z,12.98
2022-09-18T11:38:31.619Z,12.99
2022-09-18T11:39:31.598Z,13.02
2022-09-18T11:40:31.678Z,13.06
2022-09-18T11:41:31.571Z,13.08
2022-09-18T11:42:31.741Z,13.09
2022-09-18T11:43:31.564Z,13.09
2022-09-18T11:44:31.573Z,13.09
2022-09-18T11:45:31.536Z,13.09
2022-09-18T11:46:31.578Z,13.10
2022-09-18T11:47:31.580Z,13.11
2022-09-18T11:48:31.761Z,13.13
2022-09-18T11:49:31.613Z,13.14
2022-09-18T11:50:31.475Z,13.16
2022-09-18T11:51:31.465Z,13.18
2022-09-18T11:52:31.461Z,13.21
2022-09-18T11:53:31.446Z,13.24
2022-09-18T11:54:31.695Z,13.27
2022-09-18T11:55:31.426Z,13.28
2022-09-18T11:56:31.416Z,13.29
2022-09-18T11:57:31.409Z,13.29
2022-09-18T11:58:31.394Z,13.27
2022-09-18T11:59:31.404Z,13.25
2022-09-18T12:00:31.627Z,13.22
2022-09-18T12:01:31.358Z,13.19
2022-09-18T12:02:31.487Z,13.16
2022-09-18T12:03:31.432Z,13.13
2022-09-18T12:04:31.326Z,13.10
2022-09-18T12:05:31.329Z,13.08
2022-09-18T12:06:31.529Z,13.07
2022-09-18T12:07:39.351Z,13.06
2022-09-18T12:08:29.937Z,13.06
2022-09-18T12:09:29.923Z,13.06
2022-09-18T12:10:29.901Z,13.05
2022-09-18T12:11:29.890Z,13.04
2022-09-18T12:12:30.074Z,13.01
2022-09-18T12:13:29.867Z,12.97
2022-09-18T12:14:29.867Z,12.93
2022-09-18T12:15:29.851Z,12.88
2022-09-18T12:16:29.902Z,12.84
2022-09-18T12:17:29.826Z,12.79
2022-09-18T12:18:30.127Z,12.75
2022-09-18T12:19:29.791Z,12.71
2022-09-18T12:20:29.786Z,12.67
2022-09-18T12:21:29.773Z,12.64
2022-09-18T12:22:29.759Z,12.63
2022-09-18T12:23:29.746Z,12.63
2022-09-18T12:24:29.908Z,12.64
2022-09-18T12:25:29.728Z,12.65
2022-09-18T12:26:29.724Z,12.66
2022-09-18T12:27:29.702Z,12.68
2022-09-18T12:28:29.684Z,12.69
2022-09-18T12:29:29.696Z,12.70
2022-09-18T12:30:29.823Z,12.69
2022-09-18T12:31:29.675Z,12.67
2022-09-18T12:32:29.641Z,12.66
2022-09-18T12:33:33.522Z,12.66
2022-09-18T12:34:29.624Z,12.65
2022-09-18T12:35:29.639Z,12.63
2022-09-18T12:36:29.770Z,12.62
2022-09-18T12:37:29.595Z,12.60
2022-09-18T12:38:29.867Z,12.59
2022-09-18T12:39:30.262Z,12.59
2022-09-18T12:40:30.271Z,12.60
2022-09-18T12:41:30.218Z,12.63
2022-09-18T12:42:30.506Z,12.67
2022-09-18T12:43:30.195Z,12.71
2022-09-18T12:44:30.174Z,12.73
2022-09-18T12:45:30.265Z,12.73
2022-09-18T12:46:30.145Z,12.73
2022-09-18T12:47:30.141Z,12.71
2022-09-18T12:48:30.299Z,12.68
2022-09-18T12:49:30.131Z,12.66
2022-09-18T12:50:30.109Z,12.63
2022-09-18T12:51:30.098Z,12.62
2022-09-18T12:52:30.087Z,12.60
2022-09-18T12:53:30.094Z,12.59
2022-09-18T12:54:30.224Z,12.58
2022-09-18T12:55:30.099Z,12.56
2022-09-18T12:56:30.045Z,12.55
2022-09-18T12:57:30.026Z,12.53
2022-09-18T12:58:30.020Z,12.52
2022-09-18T12:59:30.001Z,12.50
2022-09-18T13:00:30.208Z,12.49
2022-09-18T13:01:29.980Z,12.47
2022-09-18T13:02:29.997Z,12.46